sensor_id;sensor_type;location;lat;lon;timestamp;temperature;humidity
20171;DHT22;10245;51.344;6.620;2023-04-30T00:00:08;9.00;85.80
20171;DHT22;10245;51.344;6.620;2023-04-30T00:02:31;8.90;85.80
20171;DHT22;10245;51.344;6.620;2023-04-30T00:04:55;8.90;85.40
20171;DHT22;10245;51.344;6.620;2023-04-30T00:07:18;8.90;85.90
20171;DHT22;10245;51.344;6.620;2023-04-30T00:09:41;9.00;85.70
20171;DHT22;10245;51.344;6.620;2023-04-30T00:12:05;9.00;85.20
20171;DHT22;10245;51.344;6.620;2023-04-30T00:14:28;9.00;85.10
20171;DHT22;10245;51.344;6.620;2023-04-30T00:16:53;9.00;85.30
20171;DHT22;10245;51.344;6.620;2023-04-30T00:19:16;9.00;84.90
20171;DHT22;10245;51.344;6.620;2023-04-30T00:21:39;9.00;85.00
20171;DHT22;10245;51.344;6.620;2023-04-30T00:24:03;9.00;84.70
20171;DHT22;10245;51.344;6.620;2023-04-30T00:26:27;9.00;85.30
20171;DHT22;10245;51.344;6.620;2023-04-30T00:28:51;9.00;85.10
20171;DHT22;10245;51.344;6.620;2023-04-30T00:31:14;9.00;85.00
20171;DHT22;10245;51.344;6.620;2023-04-30T00:33:39;9.00;85.00
20171;DHT22;10245;51.344;6.620;2023-04-30T00:36:03;9.00;85.10
20171;DHT22;10245;51.344;6.620;2023-04-30T00:38:26;9.00;84.60
20171;DHT22;10245;51.344;6.620;2023-04-30T00:40:50;8.90;84.90
20171;DHT22;10245;51.344;6.620;2023-04-30T00:43:14;8.90;85.20
20171;DHT22;10245;51.344;6.620;2023-04-30T00:45:37;8.80;85.30
20171;DHT22;10245;51.344;6.620;2023-04-30T00:48:01;9.00;85.20
20171;DHT22;10245;51.344;6.620;2023-04-30T00:50:26;8.90;85.00
20171;DHT22;10245;51.344;6.620;2023-04-30T00:52:50;8.80;85.00
20171;DHT22;10245;51.344;6.620;2023-04-30T00:55:14;8.90;85.40
20171;DHT22;10245;51.344;6.620;2023-04-30T00:57:38;8.80;85.40
20171;DHT22;10245;51.344;6.620;2023-04-30T01:00:03;8.80;85.30
20171;DHT22;10245;51.344;6.620;2023-04-30T01:02:34;8.80;85.50
20171;DHT22;10245;51.344;6.620;2023-04-30T01:04:58;8.70;85.60
20171;DHT22;10245;51.344;6.620;2023-04-30T01:07:24;8.70;85.50
20171;DHT22;10245;51.344;6.620;2023-04-30T01:09:49;8.70;85.60
20171;DHT22;10245;51.344;6.620;2023-04-30T01:12:19;8.70;85.80
20171;DHT22;10245;51.344;6.620;2023-04-30T01:14:54;8.80;86.00
20171;DHT22;10245;51.344;6.620;2023-04-30T01:17:27;8.70;85.70
20171;DHT22;10245;51.344;6.620;2023-04-30T01:19:54;8.60;86.10
20171;DHT22;10245;51.344;6.620;2023-04-30T01:22:29;8.60;85.90
20171;DHT22;10245;51.344;6.620;2023-04-30T01:25:06;8.60;86.40
20171;DHT22;10245;51.344;6.620;2023-04-30T01:28:02;8.60;86.10
20171;DHT22;10245;51.344;6.620;2023-04-30T01:30:28;8.60;86.10
20171;DHT22;10245;51.344;6.620;2023-04-30T01:32:53;8.60;86.20
20171;DHT22;10245;51.344;6.620;2023-04-30T01:35:16;8.50;86.40
20171;DHT22;10245;51.344;6.620;2023-04-30T01:37:50;8.50;86.40
20171;DHT22;10245;51.344;6.620;2023-04-30T01:40:23;8.50;86.80
20171;DHT22;10245;51.344;6.620;2023-04-30T01:42:57;8.40;86.80
20171;DHT22;10245;51.344;6.620;2023-04-30T01:45:43;8.40;87.00
20171;DHT22;10245;51.344;6.620;2023-04-30T01:48:20;8.40;87.10
20171;DHT22;10245;51.344;6.620;2023-04-30T01:50:50;8.40;87.00
20171;DHT22;10245;51.344;6.620;2023-04-30T01:53:19;8.40;87.00
20171;DHT22;10245;51.344;6.620;2023-04-30T01:55:49;8.40;86.90
20171;DHT22;10245;51.344;6.620;2023-04-30T01:58:15;8.30;86.60
20171;DHT22;10245;51.344;6.620;2023-04-30T02:00:40;8.30;87.00
20171;DHT22;10245;51.344;6.620;2023-04-30T02:03:04;8.20;87.20
20171;DHT22;10245;51.344;6.620;2023-04-30T02:05:30;8.20;87.60
20171;DHT22;10245;51.344;6.620;2023-04-30T02:07:54;8.20;87.60
20171;DHT22;10245;51.344;6.620;2023-04-30T02:10:21;8.20;87.40
20171;DHT22;10245;51.344;6.620;2023-04-30T02:12:46;8.10;87.50
20171;DHT22;10245;51.344;6.620;2023-04-30T02:15:11;8.10;87.70
20171;DHT22;10245;51.344;6.620;2023-04-30T02:17:35;8.10;87.70
20171;DHT22;10245;51.344;6.620;2023-04-30T02:19:58;8.10;87.70
20171;DHT22;10245;51.344;6.620;2023-04-30T02:22:22;8.10;87.90
20171;DHT22;10245;51.344;6.620;2023-04-30T02:24:45;8.10;87.60
20171;DHT22;10245;51.344;6.620;2023-04-30T02:27:08;8.00;87.90
20171;DHT22;10245;51.344;6.620;2023-04-30T02:29:32;7.90;88.20
20171;DHT22;10245;51.344;6.620;2023-04-30T02:31:58;8.00;88.20
20171;DHT22;10245;51.344;6.620;2023-04-30T02:34:21;8.00;88.20
20171;DHT22;10245;51.344;6.620;2023-04-30T02:36:45;8.00;88.30
20171;DHT22;10245;51.344;6.620;2023-04-30T02:39:08;8.00;88.10
20171;DHT22;10245;51.344;6.620;2023-04-30T02:41:31;7.90;88.00
20171;DHT22;10245;51.344;6.620;2023-04-30T02:43:55;7.90;88.30
20171;DHT22;10245;51.344;6.620;2023-04-30T02:46:19;7.90;88.40
20171;DHT22;10245;51.344;6.620;2023-04-30T02:48:45;7.90;88.40
20171;DHT22;10245;51.344;6.620;2023-04-30T02:51:12;7.80;88.30
20171;DHT22;10245;51.344;6.620;2023-04-30T02:53:35;7.70;88.40
20171;DHT22;10245;51.344;6.620;2023-04-30T02:55:58;7.70;88.60
20171;DHT22;10245;51.344;6.620;2023-04-30T02:58:22;7.70;88.60
20171;DHT22;10245;51.344;6.620;2023-04-30T03:00:45;7.70;88.70
20171;DHT22;10245;51.344;6.620;2023-04-30T03:03:08;7.70;88.70
20171;DHT22;10245;51.344;6.620;2023-04-30T03:05:33;7.70;88.70
20171;DHT22;10245;51.344;6.620;2023-04-30T03:07:57;7.70;88.90
20171;DHT22;10245;51.344;6.620;2023-04-30T03:10:20;7.80;88.90
20171;DHT22;10245;51.344;6.620;2023-04-30T03:12:43;7.70;88.80
20171;DHT22;10245;51.344;6.620;2023-04-30T03:15:08;7.70;88.60
20171;DHT22;10245;51.344;6.620;2023-04-30T03:17:32;7.60;88.90
20171;DHT22;10245;51.344;6.620;2023-04-30T03:19:55;7.60;88.90
20171;DHT22;10245;51.344;6.620;2023-04-30T03:22:20;7.70;88.90
20171;DHT22;10245;51.344;6.620;2023-04-30T03:24:44;7.60;88.90
20171;DHT22;10245;51.344;6.620;2023-04-30T03:27:08;7.60;89.10
20171;DHT22;10245;51.344;6.620;2023-04-30T03:29:31;7.50;89.20
20171;DHT22;10245;51.344;6.620;2023-04-30T03:31:54;7.50;89.30
20171;DHT22;10245;51.344;6.620;2023-04-30T03:34:18;7.50;89.20
20171;DHT22;10245;51.344;6.620;2023-04-30T03:36:41;7.50;89.30
20171;DHT22;10245;51.344;6.620;2023-04-30T03:39:06;7.30;89.50
20171;DHT22;10245;51.344;6.620;2023-04-30T03:41:30;7.30;89.80
20171;DHT22;10245;51.344;6.620;2023-04-30T03:43:54;7.30;89.70
20171;DHT22;10245;51.344;6.620;2023-04-30T03:46:17;7.20;90.00
20171;DHT22;10245;51.344;6.620;2023-04-30T03:48:42;7.20;90.10
20171;DHT22;10245;51.344;6.620;2023-04-30T03:51:05;7.20;90.00
20171;DHT22;10245;51.344;6.620;2023-04-30T03:53:36;7.20;90.10
20171;DHT22;10245;51.344;6.620;2023-04-30T03:56:00;7.20;90.10
20171;DHT22;10245;51.344;6.620;2023-04-30T03:58:24;7.20;89.90
20171;DHT22;10245;51.344;6.620;2023-04-30T04:00:48;7.20;90.00
20171;DHT22;10245;51.344;6.620;2023-04-30T04:03:12;7.20;90.10
20171;DHT22;10245;51.344;6.620;2023-04-30T04:05:36;7.10;90.00
20171;DHT22;10245;51.344;6.620;2023-04-30T04:07:59;7.10;90.10
20171;DHT22;10245;51.344;6.620;2023-04-30T04:10:23;7.00;90.20
20171;DHT22;10245;51.344;6.620;2023-04-30T04:12:48;7.10;90.30
20171;DHT22;10245;51.344;6.620;2023-04-30T04:15:11;7.00;90.20
20171;DHT22;10245;51.344;6.620;2023-04-30T04:17:34;7.10;90.30
20171;DHT22;10245;51.344;6.620;2023-04-30T04:19:58;7.00;90.30
20171;DHT22;10245;51.344;6.620;2023-04-30T04:22:21;7.10;90.30
20171;DHT22;10245;51.344;6.620;2023-04-30T04:24:44;7.20;90.40
20171;DHT22;10245;51.344;6.620;2023-04-30T04:27:13;7.20;90.50
20171;DHT22;10245;51.344;6.620;2023-04-30T04:29:38;7.20;90.50
20171;DHT22;10245;51.344;6.620;2023-04-30T04:32:01;7.20;90.30
20171;DHT22;10245;51.344;6.620;2023-04-30T04:34:27;7.20;90.30
20171;DHT22;10245;51.344;6.620;2023-04-30T04:36:50;7.20;90.30
20171;DHT22;10245;51.344;6.620;2023-04-30T04:39:14;7.30;90.40
20171;DHT22;10245;51.344;6.620;2023-04-30T04:41:37;7.20;90.30
20171;DHT22;10245;51.344;6.620;2023-04-30T04:44:02;7.30;90.40
20171;DHT22;10245;51.344;6.620;2023-04-30T04:46:27;7.20;90.30
20171;DHT22;10245;51.344;6.620;2023-04-30T04:48:51;7.20;90.40
20171;DHT22;10245;51.344;6.620;2023-04-30T04:51:15;7.30;90.40
20171;DHT22;10245;51.344;6.620;2023-04-30T04:53:38;7.20;90.50
20171;DHT22;10245;51.344;6.620;2023-04-30T04:56:01;7.30;90.40
20171;DHT22;10245;51.344;6.620;2023-04-30T04:58:25;7.30;90.40
20171;DHT22;10245;51.344;6.620;2023-04-30T05:00:48;7.40;90.30
20171;DHT22;10245;51.344;6.620;2023-04-30T05:03:13;7.40;90.30
20171;DHT22;10245;51.344;6.620;2023-04-30T05:05:37;7.40;90.20
20171;DHT22;10245;51.344;6.620;2023-04-30T05:08:00;7.50;90.20
20171;DHT22;10245;51.344;6.620;2023-04-30T05:10:24;7.50;90.10
20171;DHT22;10245;51.344;6.620;2023-04-30T05:12:47;7.50;90.10
20171;DHT22;10245;51.344;6.620;2023-04-30T05:15:11;7.50;90.00
20171;DHT22;10245;51.344;6.620;2023-04-30T05:17:34;7.50;90.10
20171;DHT22;10245;51.344;6.620;2023-04-30T05:19:59;7.60;90.10
20171;DHT22;10245;51.344;6.620;2023-04-30T05:22:23;7.70;90.10
20171;DHT22;10245;51.344;6.620;2023-04-30T05:24:46;7.70;90.10
20171;DHT22;10245;51.344;6.620;2023-04-30T05:27:10;7.80;90.00
20171;DHT22;10245;51.344;6.620;2023-04-30T05:29:33;7.80;89.90
20171;DHT22;10245;51.344;6.620;2023-04-30T05:31:57;7.90;89.60
20171;DHT22;10245;51.344;6.620;2023-04-30T05:34:20;8.00;89.40
20171;DHT22;10245;51.344;6.620;2023-04-30T05:36:45;8.20;89.40
20171;DHT22;10245;51.344;6.620;2023-04-30T05:39:08;8.40;88.80
20171;DHT22;10245;51.344;6.620;2023-04-30T05:41:31;8.50;88.40
20171;DHT22;10245;51.344;6.620;2023-04-30T05:43:55;8.50;88.20
20171;DHT22;10245;51.344;6.620;2023-04-30T05:46:18;8.80;88.10
20171;DHT22;10245;51.344;6.620;2023-04-30T05:48:41;8.80;87.10
20171;DHT22;10245;51.344;6.620;2023-04-30T05:51:05;8.90;87.80
20171;DHT22;10245;51.344;6.620;2023-04-30T05:53:29;9.10;87.50
20171;DHT22;10245;51.344;6.620;2023-04-30T05:55:53;9.30;86.80
20171;DHT22;10245;51.344;6.620;2023-04-30T05:58:16;9.30;86.10
20171;DHT22;10245;51.344;6.620;2023-04-30T06:00:39;9.30;85.70
20171;DHT22;10245;51.344;6.620;2023-04-30T06:03:02;9.50;85.70
20171;DHT22;10245;51.344;6.620;2023-04-30T06:05:26;9.50;85.30
20171;DHT22;10245;51.344;6.620;2023-04-30T06:07:49;9.50;85.30
20171;DHT22;10245;51.344;6.620;2023-04-30T06:10:14;9.50;85.40
20171;DHT22;10245;51.344;6.620;2023-04-30T06:12:38;9.80;84.70
20171;DHT22;10245;51.344;6.620;2023-04-30T06:15:02;10.00;83.90
20171;DHT22;10245;51.344;6.620;2023-04-30T06:17:26;9.70;82.50
20171;DHT22;10245;51.344;6.620;2023-04-30T06:19:49;9.90;83.40
20171;DHT22;10245;51.344;6.620;2023-04-30T06:22:13;10.00;83.10
20171;DHT22;10245;51.344;6.620;2023-04-30T06:24:37;10.20;82.50
20171;DHT22;10245;51.344;6.620;2023-04-30T06:27:01;10.30;81.80
20171;DHT22;10245;51.344;6.620;2023-04-30T06:29:25;10.20;82.50
20171;DHT22;10245;51.344;6.620;2023-04-30T06:31:48;10.50;81.60
20171;DHT22;10245;51.344;6.620;2023-04-30T06:34:11;10.50;80.50
20171;DHT22;10245;51.344;6.620;2023-04-30T06:36:35;10.80;81.00
20171;DHT22;10245;51.344;6.620;2023-04-30T06:38:58;10.80;80.00
20171;DHT22;10245;51.344;6.620;2023-04-30T06:41:21;10.90;80.20
20171;DHT22;10245;51.344;6.620;2023-04-30T06:43:46;11.00;79.60
20171;DHT22;10245;51.344;6.620;2023-04-30T06:46:09;11.10;79.10
20171;DHT22;10245;51.344;6.620;2023-04-30T06:48:33;11.00;79.00
20171;DHT22;10245;51.344;6.620;2023-04-30T06:50:56;11.10;79.00
20171;DHT22;10245;51.344;6.620;2023-04-30T06:53:20;11.00;78.20
20171;DHT22;10245;51.344;6.620;2023-04-30T06:55:44;11.20;78.90
20171;DHT22;10245;51.344;6.620;2023-04-30T06:58:08;11.50;78.70
20171;DHT22;10245;51.344;6.620;2023-04-30T07:00:32;11.70;77.50
20171;DHT22;10245;51.344;6.620;2023-04-30T07:02:57;11.70;77.90
20171;DHT22;10245;51.344;6.620;2023-04-30T07:05:23;11.80;77.10
20171;DHT22;10245;51.344;6.620;2023-04-30T07:07:46;11.60;76.50
20171;DHT22;10245;51.344;6.620;2023-04-30T07:10:10;11.80;77.00
20171;DHT22;10245;51.344;6.620;2023-04-30T07:12:33;12.20;78.10
20171;DHT22;10245;51.344;6.620;2023-04-30T07:14:56;12.30;75.80
20171;DHT22;10245;51.344;6.620;2023-04-30T07:17:21;12.10;77.20
20171;DHT22;10245;51.344;6.620;2023-04-30T07:19:48;12.60;76.30
20171;DHT22;10245;51.344;6.620;2023-04-30T07:22:11;13.00;74.70
20171;DHT22;10245;51.344;6.620;2023-04-30T07:24:34;12.90;72.40
20171;DHT22;10245;51.344;6.620;2023-04-30T07:26:58;13.00;73.70
20171;DHT22;10245;51.344;6.620;2023-04-30T07:29:23;13.10;72.70
20171;DHT22;10245;51.344;6.620;2023-04-30T07:31:47;13.20;71.80
20171;DHT22;10245;51.344;6.620;2023-04-30T07:34:11;12.90;74.00
20171;DHT22;10245;51.344;6.620;2023-04-30T07:36:35;13.20;72.00
20171;DHT22;10245;51.344;6.620;2023-04-30T07:38:59;13.40;72.10
20171;DHT22;10245;51.344;6.620;2023-04-30T07:41:23;13.20;72.20
20171;DHT22;10245;51.344;6.620;2023-04-30T07:43:47;13.20;75.20
20171;DHT22;10245;51.344;6.620;2023-04-30T07:46:10;13.30;71.50
20171;DHT22;10245;51.344;6.620;2023-04-30T07:48:34;13.80;71.90
20171;DHT22;10245;51.344;6.620;2023-04-30T07:50:59;14.00;71.70
20171;DHT22;10245;51.344;6.620;2023-04-30T07:53:23;13.60;69.30
20171;DHT22;10245;51.344;6.620;2023-04-30T07:55:46;13.50;70.20
20171;DHT22;10245;51.344;6.620;2023-04-30T07:58:09;14.10;71.40
20171;DHT22;10245;51.344;6.620;2023-04-30T08:00:32;14.00;69.80
20171;DHT22;10245;51.344;6.620;2023-04-30T08:02:56;14.30;69.90
20171;DHT22;10245;51.344;6.620;2023-04-30T08:05:21;13.80;72.10
20171;DHT22;10245;51.344;6.620;2023-04-30T08:07:46;14.60;70.90
20171;DHT22;10245;51.344;6.620;2023-04-30T08:10:09;14.70;68.90
20171;DHT22;10245;51.344;6.620;2023-04-30T08:12:35;14.20;72.10
20171;DHT22;10245;51.344;6.620;2023-04-30T08:14:59;14.70;70.80
20171;DHT22;10245;51.344;6.620;2023-04-30T08:17:23;14.90;71.50
20171;DHT22;10245;51.344;6.620;2023-04-30T08:19:46;14.80;71.80
20171;DHT22;10245;51.344;6.620;2023-04-30T08:22:09;15.20;70.10
20171;DHT22;10245;51.344;6.620;2023-04-30T08:24:34;15.30;70.70
20171;DHT22;10245;51.344;6.620;2023-04-30T08:26:57;15.30;65.70
20171;DHT22;10245;51.344;6.620;2023-04-30T08:29:21;15.40;67.80
20171;DHT22;10245;51.344;6.620;2023-04-30T08:31:45;14.90;65.50
20171;DHT22;10245;51.344;6.620;2023-04-30T08:34:08;15.30;70.00
20171;DHT22;10245;51.344;6.620;2023-04-30T08:36:31;15.90;67.30
20171;DHT22;10245;51.344;6.620;2023-04-30T08:38:55;15.90;64.40
20171;DHT22;10245;51.344;6.620;2023-04-30T08:41:25;15.80;65.50
20171;DHT22;10245;51.344;6.620;2023-04-30T08:43:50;15.90;64.10
20171;DHT22;10245;51.344;6.620;2023-04-30T08:46:15;16.00;65.00
20171;DHT22;10245;51.344;6.620;2023-04-30T08:48:40;16.10;63.90
20171;DHT22;10245;51.344;6.620;2023-04-30T08:51:03;16.20;62.80
20171;DHT22;10245;51.344;6.620;2023-04-30T08:53:27;16.10;66.40
20171;DHT22;10245;51.344;6.620;2023-04-30T08:55:51;16.00;63.70
20171;DHT22;10245;51.344;6.620;2023-04-30T08:58:16;16.00;65.10
20171;DHT22;10245;51.344;6.620;2023-04-30T09:00:39;15.10;63.30
20171;DHT22;10245;51.344;6.620;2023-04-30T09:03:03;15.10;67.30
20171;DHT22;10245;51.344;6.620;2023-04-30T09:05:27;16.20;64.90
20171;DHT22;10245;51.344;6.620;2023-04-30T09:07:50;16.50;64.00
20171;DHT22;10245;51.344;6.620;2023-04-30T09:10:25;16.70;65.10
20171;DHT22;10245;51.344;6.620;2023-04-30T09:12:58;17.00;62.00
20171;DHT22;10245;51.344;6.620;2023-04-30T09:15:23;15.40;65.60
20171;DHT22;10245;51.344;6.620;2023-04-30T09:17:46;16.00;62.10
20171;DHT22;10245;51.344;6.620;2023-04-30T09:20:11;16.50;61.00
20171;DHT22;10245;51.344;6.620;2023-04-30T09:22:36;16.80;60.20
20171;DHT22;10245;51.344;6.620;2023-04-30T09:24:59;16.50;59.90
20171;DHT22;10245;51.344;6.620;2023-04-30T09:27:23;16.50;61.00
20171;DHT22;10245;51.344;6.620;2023-04-30T09:29:46;16.70;62.90
20171;DHT22;10245;51.344;6.620;2023-04-30T09:32:12;17.20;60.00
20171;DHT22;10245;51.344;6.620;2023-04-30T09:34:35;17.00;61.70
20171;DHT22;10245;51.344;6.620;2023-04-30T09:36:58;17.20;60.00
20171;DHT22;10245;51.344;6.620;2023-04-30T09:39:22;17.40;58.30
20171;DHT22;10245;51.344;6.620;2023-04-30T09:41:45;17.40;58.30
20171;DHT22;10245;51.344;6.620;2023-04-30T09:44:25;17.20;57.60
20171;DHT22;10245;51.344;6.620;2023-04-30T09:46:49;16.90;62.70
20171;DHT22;10245;51.344;6.620;2023-04-30T09:49:18;17.30;60.00
20171;DHT22;10245;51.344;6.620;2023-04-30T09:51:53;17.20;57.80
20171;DHT22;10245;51.344;6.620;2023-04-30T09:54:18;17.10;58.80
20171;DHT22;10245;51.344;6.620;2023-04-30T09:56:42;17.40;58.70
20171;DHT22;10245;51.344;6.620;2023-04-30T09:59:06;17.40;58.30
20171;DHT22;10245;51.344;6.620;2023-04-30T10:01:30;17.60;58.20
20171;DHT22;10245;51.344;6.620;2023-04-30T10:03:54;17.00;57.50
20171;DHT22;10245;51.344;6.620;2023-04-30T10:06:21;17.30;61.20
20171;DHT22;10245;51.344;6.620;2023-04-30T10:08:46;17.70;57.20
20171;DHT22;10245;51.344;6.620;2023-04-30T10:11:14;17.80;58.70
20171;DHT22;10245;51.344;6.620;2023-04-30T10:13:42;17.80;55.00
20171;DHT22;10245;51.344;6.620;2023-04-30T10:16:14;17.80;56.10
20171;DHT22;10245;51.344;6.620;2023-04-30T10:18:45;18.00;55.90
20171;DHT22;10245;51.344;6.620;2023-04-30T10:21:14;17.80;54.30
20171;DHT22;10245;51.344;6.620;2023-04-30T10:23:40;18.00;55.40
20171;DHT22;10245;51.344;6.620;2023-04-30T10:26:04;18.30;56.30
20171;DHT22;10245;51.344;6.620;2023-04-30T10:28:29;18.60;59.00
20171;DHT22;10245;51.344;6.620;2023-04-30T10:30:54;18.30;54.00
20171;DHT22;10245;51.344;6.620;2023-04-30T10:33:22;18.50;57.00
20171;DHT22;10245;51.344;6.620;2023-04-30T10:35:52;18.80;56.90
20171;DHT22;10245;51.344;6.620;2023-04-30T10:38:21;18.40;56.60
20171;DHT22;10245;51.344;6.620;2023-04-30T10:40:47;18.10;56.60
20171;DHT22;10245;51.344;6.620;2023-04-30T10:43:11;17.70;53.60
20171;DHT22;10245;51.344;6.620;2023-04-30T10:45:35;18.50;56.50
20171;DHT22;10245;51.344;6.620;2023-04-30T10:48:01;18.80;52.40
20171;DHT22;10245;51.344;6.620;2023-04-30T10:50:24;18.90;53.60
20171;DHT22;10245;51.344;6.620;2023-04-30T10:53:00;18.50;51.90
20171;DHT22;10245;51.344;6.620;2023-04-30T10:55:29;18.90;53.10
20171;DHT22;10245;51.344;6.620;2023-04-30T10:57:54;18.50;52.50
20171;DHT22;10245;51.344;6.620;2023-04-30T11:00:18;18.50;52.30
20171;DHT22;10245;51.344;6.620;2023-04-30T11:02:43;18.50;54.80
20171;DHT22;10245;51.344;6.620;2023-04-30T11:05:10;17.80;54.30
20171;DHT22;10245;51.344;6.620;2023-04-30T11:07:34;17.80;56.00
20171;DHT22;10245;51.344;6.620;2023-04-30T11:09:59;18.40;55.60
20171;DHT22;10245;51.344;6.620;2023-04-30T11:12:26;18.30;53.80
20171;DHT22;10245;51.344;6.620;2023-04-30T11:14:51;18.60;54.40
20171;DHT22;10245;51.344;6.620;2023-04-30T11:17:22;18.60;54.70
20171;DHT22;10245;51.344;6.620;2023-04-30T11:19:47;18.10;55.80
20171;DHT22;10245;51.344;6.620;2023-04-30T11:22:18;18.30;56.30
20171;DHT22;10245;51.344;6.620;2023-04-30T11:24:50;18.60;54.00
20171;DHT22;10245;51.344;6.620;2023-04-30T11:27:18;18.80;54.50
20171;DHT22;10245;51.344;6.620;2023-04-30T11:29:43;19.40;50.80
20171;DHT22;10245;51.344;6.620;2023-04-30T11:32:09;19.40;51.20
20171;DHT22;10245;51.344;6.620;2023-04-30T11:34:33;18.70;51.90
20171;DHT22;10245;51.344;6.620;2023-04-30T11:36:58;18.60;51.60
20171;DHT22;10245;51.344;6.620;2023-04-30T11:39:23;17.90;54.40
20171;DHT22;10245;51.344;6.620;2023-04-30T11:41:46;18.00;53.20
20171;DHT22;10245;51.344;6.620;2023-04-30T11:44:21;18.50;53.80
20171;DHT22;10245;51.344;6.620;2023-04-30T11:46:45;19.30;53.20
20171;DHT22;10245;51.344;6.620;2023-04-30T11:49:10;19.30;50.40
20171;DHT22;10245;51.344;6.620;2023-04-30T11:51:35;19.10;49.20
20171;DHT22;10245;51.344;6.620;2023-04-30T11:53:59;18.70;48.20
20171;DHT22;10245;51.344;6.620;2023-04-30T11:56:23;18.50;53.00
20171;DHT22;10245;51.344;6.620;2023-04-30T11:58:51;18.00;52.00
20171;DHT22;10245;51.344;6.620;2023-04-30T12:01:15;18.00;55.10
20171;DHT22;10245;51.344;6.620;2023-04-30T12:03:40;18.70;52.20
20171;DHT22;10245;51.344;6.620;2023-04-30T12:06:06;19.10;51.00
20171;DHT22;10245;51.344;6.620;2023-04-30T12:08:32;19.50;46.80
20171;DHT22;10245;51.344;6.620;2023-04-30T12:10:55;19.40;48.90
20171;DHT22;10245;51.344;6.620;2023-04-30T12:13:18;19.20;48.00
20171;DHT22;10245;51.344;6.620;2023-04-30T12:15:42;18.80;51.10
20171;DHT22;10245;51.344;6.620;2023-04-30T12:18:19;18.60;53.60
20171;DHT22;10245;51.344;6.620;2023-04-30T12:20:43;19.20;52.10
20171;DHT22;10245;51.344;6.620;2023-04-30T12:23:08;19.40;51.10
20171;DHT22;10245;51.344;6.620;2023-04-30T12:25:40;19.50;47.90
20171;DHT22;10245;51.344;6.620;2023-04-30T12:28:04;19.50;47.40
20171;DHT22;10245;51.344;6.620;2023-04-30T12:30:28;19.40;47.40
20171;DHT22;10245;51.344;6.620;2023-04-30T12:32:55;19.40;51.30
20171;DHT22;10245;51.344;6.620;2023-04-30T12:35:20;19.60;46.20
20171;DHT22;10245;51.344;6.620;2023-04-30T12:37:46;19.70;46.20
20171;DHT22;10245;51.344;6.620;2023-04-30T12:40:13;20.00;46.20
20171;DHT22;10245;51.344;6.620;2023-04-30T12:42:37;19.50;51.70
20171;DHT22;10245;51.344;6.620;2023-04-30T12:45:00;19.30;50.30
20171;DHT22;10245;51.344;6.620;2023-04-30T12:47:24;19.80;47.30
20171;DHT22;10245;51.344;6.620;2023-04-30T12:49:48;19.90;46.80
20171;DHT22;10245;51.344;6.620;2023-04-30T12:52:12;20.00;46.30
20171;DHT22;10245;51.344;6.620;2023-04-30T12:54:37;19.70;48.20
20171;DHT22;10245;51.344;6.620;2023-04-30T12:57:03;19.00;46.00
20171;DHT22;10245;51.344;6.620;2023-04-30T12:59:27;18.70;47.70
20171;DHT22;10245;51.344;6.620;2023-04-30T13:01:51;19.30;51.30
20171;DHT22;10245;51.344;6.620;2023-04-30T13:04:15;19.50;47.00
20171;DHT22;10245;51.344;6.620;2023-04-30T13:06:39;19.60;43.80
20171;DHT22;10245;51.344;6.620;2023-04-30T13:09:03;19.50;44.90
20171;DHT22;10245;51.344;6.620;2023-04-30T13:11:27;19.50;45.20
20171;DHT22;10245;51.344;6.620;2023-04-30T13:13:52;19.50;47.00
20171;DHT22;10245;51.344;6.620;2023-04-30T13:16:16;19.60;45.50
20171;DHT22;10245;51.344;6.620;2023-04-30T13:18:40;19.80;46.40
20171;DHT22;10245;51.344;6.620;2023-04-30T13:21:04;20.00;45.20
20171;DHT22;10245;51.344;6.620;2023-04-30T13:23:27;19.70;46.30
20171;DHT22;10245;51.344;6.620;2023-04-30T13:25:54;19.50;46.50
20171;DHT22;10245;51.344;6.620;2023-04-30T13:28:18;19.80;46.20
20171;DHT22;10245;51.344;6.620;2023-04-30T13:30:42;19.60;44.40
20171;DHT22;10245;51.344;6.620;2023-04-30T13:33:06;19.30;47.40
20171;DHT22;10245;51.344;6.620;2023-04-30T13:35:29;19.60;49.70
20171;DHT22;10245;51.344;6.620;2023-04-30T13:37:53;19.80;49.40
20171;DHT22;10245;51.344;6.620;2023-04-30T13:40:17;19.80;50.40
20171;DHT22;10245;51.344;6.620;2023-04-30T13:42:41;19.60;45.20
20171;DHT22;10245;51.344;6.620;2023-04-30T13:45:05;19.50;46.90
20171;DHT22;10245;51.344;6.620;2023-04-30T13:47:31;19.50;49.30
20171;DHT22;10245;51.344;6.620;2023-04-30T13:49:54;19.70;45.40
20171;DHT22;10245;51.344;6.620;2023-04-30T13:52:18;19.80;47.40
20171;DHT22;10245;51.344;6.620;2023-04-30T13:54:41;19.00;46.50
20171;DHT22;10245;51.344;6.620;2023-04-30T13:57:05;19.30;47.60
20171;DHT22;10245;51.344;6.620;2023-04-30T13:59:28;19.50;44.80
20171;DHT22;10245;51.344;6.620;2023-04-30T14:01:52;19.90;47.50
20171;DHT22;10245;51.344;6.620;2023-04-30T14:04:17;19.70;45.20
20171;DHT22;10245;51.344;6.620;2023-04-30T14:06:40;19.50;45.20
20171;DHT22;10245;51.344;6.620;2023-04-30T14:09:04;19.80;50.60
20171;DHT22;10245;51.344;6.620;2023-04-30T14:11:28;20.00;45.10
20171;DHT22;10245;51.344;6.620;2023-04-30T14:13:51;20.00;48.70
20171;DHT22;10245;51.344;6.620;2023-04-30T14:16:14;19.70;44.80
20171;DHT22;10245;51.344;6.620;2023-04-30T14:18:39;20.00;43.90
20171;DHT22;10245;51.344;6.620;2023-04-30T14:21:06;20.00;44.60
20171;DHT22;10245;51.344;6.620;2023-04-30T14:23:29;19.60;42.90
20171;DHT22;10245;51.344;6.620;2023-04-30T14:25:52;19.50;46.80
20171;DHT22;10245;51.344;6.620;2023-04-30T14:28:16;19.50;44.00
20171;DHT22;10245;51.344;6.620;2023-04-30T14:30:39;19.70;46.90
20171;DHT22;10245;51.344;6.620;2023-04-30T14:33:03;19.30;45.30
20171;DHT22;10245;51.344;6.620;2023-04-30T14:35:26;19.60;50.80
20171;DHT22;10245;51.344;6.620;2023-04-30T14:37:51;19.60;46.00
20171;DHT22;10245;51.344;6.620;2023-04-30T14:40:14;19.40;47.20
20171;DHT22;10245;51.344;6.620;2023-04-30T14:42:37;19.60;44.60
20171;DHT22;10245;51.344;6.620;2023-04-30T14:45:01;19.90;44.90
20171;DHT22;10245;51.344;6.620;2023-04-30T14:47:24;19.50;44.60
20171;DHT22;10245;51.344;6.620;2023-04-30T14:49:48;19.90;46.30
20171;DHT22;10245;51.344;6.620;2023-04-30T14:52:14;19.90;44.10
20171;DHT22;10245;51.344;6.620;2023-04-30T14:54:39;20.10;43.60
20171;DHT22;10245;51.344;6.620;2023-04-30T14:57:02;19.40;44.00
20171;DHT22;10245;51.344;6.620;2023-04-30T14:59:26;19.70;49.00
20171;DHT22;10245;51.344;6.620;2023-04-30T15:01:49;20.20;47.80
20171;DHT22;10245;51.344;6.620;2023-04-30T15:04:13;20.10;43.80
20171;DHT22;10245;51.344;6.620;2023-04-30T15:06:36;19.90;44.20
20171;DHT22;10245;51.344;6.620;2023-04-30T15:09:00;19.60;44.20
20171;DHT22;10245;51.344;6.620;2023-04-30T15:11:25;19.80;43.40
20171;DHT22;10245;51.344;6.620;2023-04-30T15:13:48;19.60;45.80
20171;DHT22;10245;51.344;6.620;2023-04-30T15:16:11;19.90;47.50
20171;DHT22;10245;51.344;6.620;2023-04-30T15:18:35;20.30;49.00
20171;DHT22;10245;51.344;6.620;2023-04-30T15:20:58;19.20;45.20